Time;durP1;ratioP1;P1;durP2;ratioP2;P2;SDS_P1;SDS_P2;PMS_P1;PMS_P2;Temp;Humidity;BMP_temperature;BMP_pressure;BME280_temperature;BME280_humidity;BME280_pressure;Samples;Min_cycle;Max_cycle;Signal;HPM_P1;HPM_P2
2021/12/26 00:01:15;;;;;;;0.17;0.15;;;;;;;;;;5053527;28;20108;-66
2021/12/26 00:03:41;;;;;;;0.10;0.05;;;;;;;;;;5054438;28;20518;-66
2021/12/26 00:06:07;;;;;;;0.68;0.20;;;;;;;;;;5054612;28;20025;-66
2021/12/26 00:08:33;;;;;;;1.20;0.10;;;;;;;;;;5054438;28;20017;-65
2021/12/26 00:10:58;;;;;;;0.38;0.10;;;;;;;;;;5054702;28;20096;-65
2021/12/26 00:13:23;;;;;;;0.63;0.20;;;;;;;;;;5054489;28;20372;-66
2021/12/26 00:15:49;;;;;;;0.43;0.10;;;;;;;;;;5054314;28;20261;-66
2021/12/26 00:18:14;;;;;;;0.10;0.10;;;;;;;;;;5054406;28;20242;-66
2021/12/26 00:20:40;;;;;;;0.20;0.10;;;;;;;;;;5054096;28;20464;-65
2021/12/26 00:23:06;;;;;;;1.42;0.55;;;;;;;;;;5054115;28;20060;-66
2021/12/26 00:25:32;;;;;;;0.40;0.00;;;;;;;;;;5036231;28;20057;-66
2021/12/26 00:27:57;;;;;;;1.08;0.22;;;;;;;;;;5034214;28;20029;-67
2021/12/26 00:30:22;;;;;;;0.98;0.10;;;;;;;;;;5034214;28;20017;-66
2021/12/26 00:32:49;;;;;;;0.10;0.00;;;;;;;;;;5034039;28;20021;-65
2021/12/26 00:35:15;;;;;;;0.63;0.10;;;;;;;;;;5034146;28;20668;-65
2021/12/26 00:37:40;;;;;;;0.30;0.10;;;;;;;;;;5033996;28;20127;-65
2021/12/26 00:40:07;;;;;;;0.32;0.03;;;;;;;;;;5034113;28;20457;-66
2021/12/26 00:42:32;;;;;;;0.40;0.28;;;;;;;;;;5034000;28;20030;-66
2021/12/26 00:44:57;;;;;;;0.55;0.10;;;;;;;;;;5033724;28;20063;-66
2021/12/26 00:47:23;;;;;;;0.22;0.10;;;;;;;;;;5042920;28;20025;-66
2021/12/26 00:49:48;;;;;;;0.30;0.10;;;;;;;;;;5053728;28;20013;-65
2021/12/26 00:52:13;;;;;;;0.63;0.47;;;;;;;;;;5053813;28;20387;-66
2021/12/26 00:54:38;;;;;;;0.63;0.22;;;;;;;;;;5053477;28;20066;-66
2021/12/26 00:57:04;;;;;;;0.60;0.10;;;;;;;;;;5053567;28;20092;-66
2021/12/26 00:59:29;;;;;;;0.43;0.10;;;;;;;;;;5038606;28;20254;-66
2021/12/26 01:01:55;;;;;;;0.15;0.08;;;;;;;;;;5033427;28;20017;-66
2021/12/26 01:04:21;;;;;;;2.38;0.35;;;;;;;;;;5033533;28;20075;-65
2021/12/26 01:06:46;;;;;;;0.75;0.10;;;;;;;;;;5033073;28;20029;-65
2021/12/26 01:09:16;;;;;;;0.82;0.10;;;;;;;;;;5033415;28;20025;-66
2021/12/26 01:11:47;;;;;;;0.95;0.43;;;;;;;;;;5033291;28;20014;-66
2021/12/26 01:14:15;;;;;;;0.80;0.40;;;;;;;;;;5033415;28;20053;-66
2021/12/26 01:16:40;;;;;;;0.43;0.10;;;;;;;;;;5033202;28;20018;-65
2021/12/26 01:19:12;;;;;;;1.15;0.17;;;;;;;;;;5033378;28;20044;-66
2021/12/26 01:21:37;;;;;;;0.20;0.10;;;;;;;;;;5033163;28;20021;-66
2021/12/26 01:24:04;;;;;;;0.28;0.20;;;;;;;;;;5033025;28;20087;-66
2021/12/26 01:26:30;;;;;;;0.22;0.10;;;;;;;;;;5033075;28;20029;-65
2021/12/26 01:28:55;;;;;;;0.20;0.10;;;;;;;;;;5032950;28;20018;-65
2021/12/26 01:31:21;;;;;;;1.20;0.10;;;;;;;;;;5033166;28;20017;-66
2021/12/26 01:33:47;;;;;;;0.20;0.10;;;;;;;;;;5031571;28;20022;-66
2021/12/26 01:36:12;;;;;;;0.32;0.10;;;;;;;;;;5033028;28;20021;-65
2021/12/26 01:38:37;;;;;;;0.13;0.10;;;;;;;;;;5032810;28;20029;-65
2021/12/26 01:41:09;;;;;;;0.10;0.10;;;;;;;;;;5032941;28;20410;-66
2021/12/26 01:43:35;;;;;;;0.70;0.15;;;;;;;;;;5032937;28;20753;-66
2021/12/26 01:46:01;;;;;;;0.10;0.10;;;;;;;;;;5032666;28;20053;-66
2021/12/26 01:48:26;;;;;;;0.73;0.20;;;;;;;;;;5050463;28;20056;-66
2021/12/26 01:50:52;;;;;;;0.32;0.22;;;;;;;;;;5052430;28;20107;-66
2021/12/26 01:53:19;;;;;;;1.40;0.28;;;;;;;;;;5052730;28;20013;-66
2021/12/26 01:55:46;;;;;;;1.50;0.30;;;;;;;;;;5052410;28;20017;-66
2021/12/26 01:58:14;;;;;;;0.35;0.20;;;;;;;;;;5052559;28;20021;-65
2021/12/26 02:00:41;;;;;;;0.30;0.10;;;;;;;;;;5052393;28;20091;-65
2021/12/26 02:03:06;;;;;;;0.75;0.10;;;;;;;;;;5052578;28;20020;-67
2021/12/26 02:05:31;;;;;;;0.20;0.10;;;;;;;;;;5051091;28;20020;-66
2021/12/26 02:07:57;;;;;;;0.40;0.08;;;;;;;;;;5051071;28;20741;-66
2021/12/26 02:10:22;;;;;;;0.10;0.00;;;;;;;;;;5051358;28;20017;-65
2021/12/26 02:12:47;;;;;;;0.50;0.10;;;;;;;;;;5052185;28;20013;-65
2021/12/26 02:15:12;;;;;;;0.20;0.07;;;;;;;;;;5051122;28;20258;-65
2021/12/26 02:17:37;;;;;;;0.87;0.10;;;;;;;;;;5051757;28;20380;-66
2021/12/26 02:20:12;;;;;;;0.10;0.10;;;;;;;;;;5052376;28;20017;-69
2021/12/26 02:22:40;;;;;;;0.22;0.00;;;;;;;;;;5051960;28;20124;-66
2021/12/26 02:27:33;;;;;;;0.20;0.10;;;;;;;;;;5032581;28;20020;-64
2021/12/26 02:30:07;;;;;;;0.10;0.00;;;;;;;;;;5032233;28;20472;-66
2021/12/26 02:32:32;;;;;;;0.30;0.10;;;;;;;;;;5032179;28;20017;-65
2021/12/26 02:34:58;;;;;;;0.63;0.20;;;;;;;;;;5032102;28;20029;-66
2021/12/26 02:37:24;;;;;;;0.30;0.05;;;;;;;;;;5032367;28;20357;-65
2021/12/26 02:39:49;;;;;;;0.50;0.10;;;;;;;;;;5032092;28;20508;-64
2021/12/26 02:42:17;;;;;;;0.75;0.05;;;;;;;;;;5031042;28;20187;-66
2021/12/26 02:44:42;;;;;;;0.13;0.10;;;;;;;;;;5031933;28;20165;-66
2021/12/26 02:47:07;;;;;;;0.80;0.20;;;;;;;;;;5039034;28;20554;-66
2021/12/26 02:49:32;;;;;;;0.10;0.00;;;;;;;;;;5052071;28;20238;-66
2021/12/26 02:51:57;;;;;;;0.87;0.10;;;;;;;;;;5051947;28;20793;-65
2021/12/26 02:54:24;;;;;;;0.10;0.10;;;;;;;;;;5052050;28;20280;-65
2021/12/26 02:56:49;;;;;;;0.90;0.20;;;;;;;;;;5051739;28;20353;-66
2021/12/26 02:59:15;;;;;;;0.35;0.20;;;;;;;;;;5050755;28;20029;-65
2021/12/26 03:01:40;;;;;;;1.50;0.20;;;;;;;;;;5051810;28;20044;-65
2021/12/26 03:04:08;;;;;;;0.65;0.10;;;;;;;;;;5051962;28;20262;-65
2021/12/26 03:09:34;;;;;;;0.30;0.10;;;;;;;;;;5009709;28;20108;-66
2021/12/26 03:11:59;;;;;;;0.75;0.10;;;;;;;;;;5009849;28;20037;-66
2021/12/26 03:14:24;;;;;;;0.70;0.10;;;;;;;;;;5009869;28;20393;-65
2021/12/26 03:16:50;;;;;;;0.67;0.07;;;;;;;;;;5009603;28;20025;-64
2021/12/26 03:19:16;;;;;;;0.10;0.10;;;;;;;;;;5009825;28;20259;-66
2021/12/26 03:21:41;;;;;;;0.95;0.30;;;;;;;;;;4993334;28;20476;-65
2021/12/26 03:24:06;;;;;;;0.73;0.20;;;;;;;;;;5003545;28;20046;-64
2021/12/26 03:26:31;;;;;;;0.57;0.25;;;;;;;;;;4989826;28;20038;-65
2021/12/26 03:28:56;;;;;;;0.25;0.20;;;;;;;;;;4990344;28;20030;-66
2021/12/26 03:31:22;;;;;;;0.20;0.10;;;;;;;;;;4993677;28;20030;-65
2021/12/26 03:33:47;;;;;;;0.95;0.10;;;;;;;;;;4977010;28;20018;-65
2021/12/26 03:36:12;;;;;;;0.20;0.13;;;;;;;;;;4993523;28;20030;-65
2021/12/26 03:38:37;;;;;;;0.10;0.10;;;;;;;;;;4993324;28;20260;-64
2021/12/26 03:41:03;;;;;;;0.22;0.00;;;;;;;;;;4993431;28;20057;-67
2021/12/26 03:43:28;;;;;;;0.20;0.00;;;;;;;;;;4993436;28;20536;-65
2021/12/26 03:45:54;;;;;;;0.47;0.10;;;;;;;;;;5027412;28;20036;-65
2021/12/26 03:48:20;;;;;;;0.30;0.28;;;;;;;;;;5051768;28;20021;-66
2021/12/26 03:50:46;;;;;;;0.40;0.10;;;;;;;;;;5054727;28;20036;-66
2021/12/26 03:53:11;;;;;;;0.20;0.10;;;;;;;;;;5054914;28;20017;-66
2021/12/26 03:55:37;;;;;;;0.25;0.20;;;;;;;;;;5053603;28;20064;-65
2021/12/26 03:58:02;;;;;;;0.52;0.10;;;;;;;;;;5054755;28;20371;-65
2021/12/26 04:00:28;;;;;;;0.15;0.10;;;;;;;;;;5054785;28;20031;-66
2021/12/26 04:02:53;;;;;;;0.35;0.20;;;;;;;;;;5053171;28;20021;-66
2021/12/26 04:05:19;;;;;;;0.00;0.00;;;;;;;;;;5054551;28;20017;-65
2021/12/26 04:07:44;;;;;;;0.15;0.08;;;;;;;;;;5054486;28;20131;-65
2021/12/26 04:10:10;;;;;;;0.20;0.10;;;;;;;;;;5054685;28;20040;-66
2021/12/26 04:12:37;;;;;;;0.80;0.30;;;;;;;;;;5054393;28;20250;-66
2021/12/26 04:15:06;;;;;;;0.80;0.35;;;;;;;;;;5054522;28;20021;-66
2021/12/26 04:17:31;;;;;;;0.30;0.10;;;;;;;;;;5054399;28;20033;-65
2021/12/26 04:19:56;;;;;;;0.83;0.07;;;;;;;;;;5054276;28;20112;-66
2021/12/26 04:22:22;;;;;;;0.43;0.03;;;;;;;;;;5054186;28;20250;-66
2021/12/26 04:24:47;;;;;;;0.57;0.17;;;;;;;;;;5040865;28;20369;-66
2021/12/26 04:27:12;;;;;;;0.50;0.13;;;;;;;;;;5034393;28;20022;-66
2021/12/26 04:29:37;;;;;;;0.25;0.15;;;;;;;;;;5034213;28;20259;-65
2021/12/26 04:32:02;;;;;;;0.20;0.10;;;;;;;;;;5034230;28;20060;-66
2021/12/26 04:34:28;;;;;;;0.17;0.10;;;;;;;;;;5034192;28;20387;-65
2021/12/26 04:36:53;;;;;;;0.30;0.10;;;;;;;;;;5033913;28;20033;-65
2021/12/26 04:39:18;;;;;;;0.37;0.10;;;;;;;;;;5034459;28;20291;-66
2021/12/26 04:41:45;;;;;;;0.40;0.20;;;;;;;;;;5033462;28;20294;-66
2021/12/26 04:44:11;;;;;;;0.63;0.17;;;;;;;;;;5034048;28;20246;-65
2021/12/26 04:46:36;;;;;;;0.82;0.20;;;;;;;;;;5036232;28;20480;-65
2021/12/26 04:49:01;;;;;;;0.60;0.10;;;;;;;;;;5053866;28;20427;-66
2021/12/26 04:51:26;;;;;;;0.10;0.10;;;;;;;;;;5053795;28;20262;-66
2021/12/26 04:53:52;;;;;;;0.10;0.00;;;;;;;;;;5053638;28;20325;-66
2021/12/26 04:56:17;;;;;;;0.10;0.00;;;;;;;;;;5053993;28;20025;-65
2021/12/26 04:58:43;;;;;;;0.30;0.10;;;;;;;;;;5044125;28;20164;-65
2021/12/26 05:01:08;;;;;;;0.70;0.10;;;;;;;;;;5034086;28;20032;-65
2021/12/26 05:03:33;;;;;;;0.38;0.10;;;;;;;;;;5033656;28;20500;-67
2021/12/26 05:05:58;;;;;;;0.10;0.00;;;;;;;;;;5033473;28;20034;-66
2021/12/26 05:08:24;;;;;;;0.85;0.15;;;;;;;;;;5033549;28;20080;-65
2021/12/26 05:10:49;;;;;;;0.30;0.20;;;;;;;;;;5033247;28;20049;-64
2021/12/26 05:13:14;;;;;;;0.30;0.10;;;;;;;;;;5033497;28;20061;-66
2021/12/26 05:15:40;;;;;;;0.50;0.10;;;;;;;;;;5033332;28;20250;-65
2021/12/26 05:18:06;;;;;;;0.10;0.08;;;;;;;;;;5033402;28;20040;-65
2021/12/26 05:20:31;;;;;;;0.60;0.10;;;;;;;;;;5033256;28;20487;-66
2021/12/26 05:22:57;;;;;;;0.10;0.00;;;;;;;;;;5033018;28;20045;-66
2021/12/26 05:25:22;;;;;;;0.52;0.10;;;;;;;;;;5033125;28;20499;-66
2021/12/26 05:27:48;;;;;;;0.63;0.10;;;;;;;;;;5033091;28;20013;-65
2021/12/26 05:30:14;;;;;;;0.22;0.10;;;;;;;;;;5033124;28;20511;-65
2021/12/26 05:32:40;;;;;;;0.10;0.10;;;;;;;;;;5032917;28;20057;-65
2021/12/26 05:35:06;;;;;;;0.10;0.00;;;;;;;;;;5033109;28;20029;-66
2021/12/26 05:37:31;;;;;;;0.63;0.10;;;;;;;;;;5032842;28;20063;-65
2021/12/26 05:39:57;;;;;;;0.30;0.27;;;;;;;;;;5032838;28;20071;-66
2021/12/26 05:42:22;;;;;;;0.28;0.00;;;;;;;;;;5032982;28;20280;-64
2021/12/26 05:44:48;;;;;;;0.85;0.20;;;;;;;;;;5032539;28;20456;-66
2021/12/26 05:47:13;;;;;;;0.65;0.08;;;;;;;;;;5040482;28;20012;-65
2021/12/26 05:49:38;;;;;;;0.68;0.10;;;;;;;;;;5052655;28;20013;-66
2021/12/26 05:52:04;;;;;;;0.35;0.10;;;;;;;;;;5051987;28;20013;-65
2021/12/26 05:54:30;;;;;;;0.15;0.10;;;;;;;;;;5052582;28;20027;-65
2021/12/26 05:56:55;;;;;;;0.47;0.20;;;;;;;;;;5052668;28;20029;-66
2021/12/26 05:59:20;;;;;;;0.32;0.00;;;;;;;;;;5052668;28;20053;-66
2021/12/26 06:01:45;;;;;;;0.43;0.03;;;;;;;;;;5052392;28;20064;-65
2021/12/26 06:04:11;;;;;;;0.47;0.03;;;;;;;;;;5052477;28;20258;-65
2021/12/26 06:06:36;;;;;;;0.23;0.03;;;;;;;;;;5052314;28;20277;-67
2021/12/26 06:09:03;;;;;;;0.22;0.10;;;;;;;;;;5051194;28;20293;-66
2021/12/26 06:11:28;;;;;;;1.30;0.10;;;;;;;;;;5052454;28;20039;-66
2021/12/26 06:13:53;;;;;;;0.60;0.00;;;;;;;;;;5050993;28;20017;-66
2021/12/26 06:16:19;;;;;;;0.80;0.30;;;;;;;;;;5052440;28;20027;-65
2021/12/26 06:18:44;;;;;;;0.10;0.10;;;;;;;;;;5052127;28;20478;-66
2021/12/26 06:21:09;;;;;;;0.10;0.00;;;;;;;;;;5052347;28;20321;-66
2021/12/26 06:23:34;;;;;;;1.33;0.00;;;;;;;;;;5050390;28;20330;-66
2021/12/26 06:25:59;;;;;;;0.90;0.17;;;;;;;;;;5032289;28;20282;-65
2021/12/26 06:28:24;;;;;;;0.90;0.22;;;;;;;;;;5032338;28;20431;-66
2021/12/26 06:30:50;;;;;;;0.57;0.20;;;;;;;;;;5032070;28;20360;-66
2021/12/26 06:33:15;;;;;;;0.10;0.10;;;;;;;;;;5032293;28;20044;-65
2021/12/26 06:35:40;;;;;;;0.23;0.10;;;;;;;;;;5032171;28;20289;-66
2021/12/26 06:38:05;;;;;;;0.60;0.17;;;;;;;;;;5032226;28;20041;-65
2021/12/26 06:40:30;;;;;;;0.30;0.10;;;;;;;;;;5032223;28;20257;-65
2021/12/26 06:42:55;;;;;;;0.40;0.20;;;;;;;;;;5032061;28;20029;-66
2021/12/26 06:45:21;;;;;;;0.43;0.20;;;;;;;;;;5032127;28;20022;-66
2021/12/26 06:47:50;;;;;;;0.95;0.20;;;;;;;;;;5044120;28;20407;-67
2021/12/26 06:50:16;;;;;;;0.45;0.10;;;;;;;;;;5052066;28;20017;-66
2021/12/26 06:52:41;;;;;;;0.35;0.10;;;;;;;;;;5051819;28;20039;-65
2021/12/26 06:55:07;;;;;;;1.35;0.30;;;;;;;;;;5052313;28;20047;-67
2021/12/26 06:57:33;;;;;;;0.73;0.10;;;;;;;;;;5052206;28;20364;-66
2021/12/26 06:59:58;;;;;;;0.45;0.30;;;;;;;;;;5051867;28;20460;-65
2021/12/26 07:02:23;;;;;;;0.20;0.17;;;;;;;;;;5052290;28;20029;-65
2021/12/26 07:04:48;;;;;;;0.52;0.10;;;;;;;;;;5054995;28;20074;-65
2021/12/26 07:07:13;;;;;;;0.47;0.10;;;;;;;;;;5055802;28;20452;-66
2021/12/26 07:09:39;;;;;;;0.77;0.10;;;;;;;;;;5055563;28;20387;-66
2021/12/26 07:12:05;;;;;;;0.15;0.10;;;;;;;;;;5055669;28;20277;-66
2021/12/26 07:14:30;;;;;;;0.20;0.20;;;;;;;;;;5055720;28;20100;-66
2021/12/26 07:16:55;;;;;;;0.20;0.10;;;;;;;;;;5055465;28;20367;-65
2021/12/26 07:19:20;;;;;;;0.20;0.10;;;;;;;;;;5055611;28;20380;-65
2021/12/26 07:21:45;;;;;;;0.38;0.10;;;;;;;;;;5059230;23;20542;-65
2021/12/26 07:24:11;;;;;;;0.20;0.00;;;;;;;;;;5055371;28;20029;-66
2021/12/26 07:26:36;;;;;;;0.30;0.10;;;;;;;;;;5055235;28;20036;-65
2021/12/26 07:29:02;;;;;;;0.45;0.25;;;;;;;;;;5055357;28;20250;-65
2021/12/26 07:31:28;;;;;;;0.10;0.10;;;;;;;;;;5055327;28;20057;-66
2021/12/26 07:33:53;;;;;;;0.10;0.10;;;;;;;;;;5055105;28;20009;-66
2021/12/26 07:36:19;;;;;;;0.80;0.10;;;;;;;;;;5055327;28;20371;-65
2021/12/26 07:38:44;;;;;;;1.45;0.28;;;;;;;;;;5053543;28;20036;-67
2021/12/26 07:41:09;;;;;;;0.80;0.00;;;;;;;;;;5055252;28;20021;-66
2021/12/26 07:43:34;;;;;;;0.20;0.10;;;;;;;;;;5055091;28;20253;-66
2021/12/26 07:45:59;;;;;;;0.85;0.10;;;;;;;;;;5054921;28;20777;-66
2021/12/26 07:48:24;;;;;;;0.40;0.13;;;;;;;;;;5055020;28;20478;-66
2021/12/26 07:50:50;;;;;;;0.13;0.00;;;;;;;;;;5054793;28;20341;-65
2021/12/26 07:53:15;;;;;;;0.40;0.20;;;;;;;;;;5054988;28;20265;-65
2021/12/26 07:55:40;;;;;;;0.70;0.10;;;;;;;;;;5054881;28;20107;-66
2021/12/26 07:58:06;;;;;;;1.17;0.30;;;;;;;;;;5054848;28;20021;-66
2021/12/26 08:00:31;;;;;;;1.33;0.10;;;;;;;;;;5054736;28;20107;-66
2021/12/26 08:02:57;;;;;;;0.10;0.00;;;;;;;;;;5054679;28;20037;-65
2021/12/26 08:05:22;;;;;;;1.30;0.28;;;;;;;;;;5054843;28;20025;-66
2021/12/26 08:07:48;;;;;;;0.47;0.10;;;;;;;;;;5054565;28;20017;-66
2021/12/26 08:10:13;;;;;;;0.00;0.00;;;;;;;;;;5054544;28;20315;-66
2021/12/26 08:12:38;;;;;;;0.20;0.10;;;;;;;;;;5054480;28;20024;-66
2021/12/26 08:15:04;;;;;;;0.47;0.20;;;;;;;;;;5053735;28;20077;-65
2021/12/26 08:17:29;;;;;;;1.20;0.10;;;;;;;;;;5054368;28;20028;-66
2021/12/26 08:19:55;;;;;;;0.32;0.10;;;;;;;;;;5054186;28;20032;-66
2021/12/26 08:22:20;;;;;;;0.60;0.20;;;;;;;;;;5054423;28;20025;-66
2021/12/26 08:24:46;;;;;;;0.40;0.00;;;;;;;;;;5042506;28;20025;-66
2021/12/26 08:27:11;;;;;;;0.30;0.10;;;;;;;;;;5033089;28;20022;-65
2021/12/26 08:29:36;;;;;;;0.10;0.10;;;;;;;;;;5034383;28;20014;-65
2021/12/26 08:32:02;;;;;;;0.60;0.20;;;;;;;;;;5034259;28;20021;-66
2021/12/26 08:34:27;;;;;;;0.00;0.00;;;;;;;;;;5034304;28;20756;-66
2021/12/26 08:37:04;;;;;;;0.57;0.20;;;;;;;;;;5033981;28;20053;-65
2021/12/26 08:39:33;;;;;;;0.22;0.10;;;;;;;;;;5034242;28;20549;-65
2021/12/26 08:41:59;;;;;;;0.20;0.10;;;;;;;;;;5034055;28;20588;-66
2021/12/26 08:44:24;;;;;;;0.10;0.10;;;;;;;;;;5034104;28;20057;-66
2021/12/26 08:46:50;;;;;;;0.40;0.22;;;;;;;;;;5038162;28;20013;-66
2021/12/26 08:49:15;;;;;;;0.43;0.30;;;;;;;;;;5053949;28;20025;-66
2021/12/26 08:51:40;;;;;;;0.30;0.10;;;;;;;;;;5053742;28;20498;-65
2021/12/26 08:54:05;;;;;;;0.35;0.10;;;;;;;;;;5053879;28;20253;-65
2021/12/26 08:56:31;;;;;;;0.10;0.08;;;;;;;;;;5053732;28;20079;-66
2021/12/26 08:58:56;;;;;;;0.20;0.10;;;;;;;;;;5043900;28;20021;-66
2021/12/26 09:01:21;;;;;;;2.70;0.30;;;;;;;;;;5033813;28;20515;-65
2021/12/26 09:03:46;;;;;;;0.10;0.10;;;;;;;;;;5033530;28;20250;-66
2021/12/26 09:06:11;;;;;;;0.83;0.17;;;;;;;;;;5033609;28;20490;-65
2021/12/26 09:08:37;;;;;;;0.70;0.20;;;;;;;;;;5033422;28;20239;-65
2021/12/26 09:11:02;;;;;;;0.10;0.10;;;;;;;;;;5033526;28;20468;-65
2021/12/26 09:13:27;;;;;;;0.13;0.10;;;;;;;;;;5033569;28;20071;-67
2021/12/26 09:15:52;;;;;;;0.20;0.10;;;;;;;;;;5033272;28;20025;-67
2021/12/26 09:18:18;;;;;;;0.50;0.20;;;;;;;;;;5033482;28;20246;-66
2021/12/26 09:20:43;;;;;;;0.93;0.20;;;;;;;;;;5032931;28;20621;-66
2021/12/26 09:23:08;;;;;;;0.57;0.10;;;;;;;;;;5033333;28;20036;-65
2021/12/26 09:25:34;;;;;;;0.50;0.20;;;;;;;;;;5033417;28;20299;-66
2021/12/26 09:27:59;;;;;;;0.47;0.10;;;;;;;;;;5033143;28;20376;-65
2021/12/26 09:30:25;;;;;;;1.30;0.10;;;;;;;;;;5031360;28;20067;-65
2021/12/26 09:32:50;;;;;;;0.13;0.10;;;;;;;;;;5032926;28;20247;-65
2021/12/26 09:35:16;;;;;;;0.68;0.20;;;;;;;;;;5033118;28;20327;-66
2021/12/26 09:37:41;;;;;;;0.45;0.10;;;;;;;;;;5033010;28;20413;-66
2021/12/26 09:40:07;;;;;;;0.52;0.20;;;;;;;;;;5033153;28;20264;-66
2021/12/26 09:42:33;;;;;;;0.40;0.10;;;;;;;;;;5031649;28;20603;-66
2021/12/26 09:44:58;;;;;;;0.47;0.10;;;;;;;;;;5032797;28;20018;-67
2021/12/26 09:47:24;;;;;;;0.55;0.20;;;;;;;;;;5042063;28;20016;-66
2021/12/26 09:49:49;;;;;;;0.85;0.13;;;;;;;;;;5052690;28;20070;-65
2021/12/26 09:52:14;;;;;;;0.10;0.10;;;;;;;;;;5052792;28;20090;-65
2021/12/26 09:54:39;;;;;;;0.17;0.10;;;;;;;;;;5052602;28;20242;-66
2021/12/26 09:57:05;;;;;;;0.07;0.00;;;;;;;;;;5052724;28;20460;-66
2021/12/26 09:59:31;;;;;;;0.20;0.10;;;;;;;;;;5052680;28;20724;-65
2021/12/26 10:01:57;;;;;;;0.90;0.10;;;;;;;;;;5052800;28;20028;-65
2021/12/26 10:04:27;;;;;;;1.00;0.20;;;;;;;;;;5051246;28;20470;-66
2021/12/26 10:07:03;;;;;;;0.43;0.10;;;;;;;;;;5050970;28;20037;-65
2021/12/26 10:09:29;;;;;;;0.30;0.00;;;;;;;;;;5052535;28;20041;-65
2021/12/26 10:11:55;;;;;;;0.52;0.10;;;;;;;;;;5051299;28;20138;-65
2021/12/26 10:14:25;;;;;;;0.25;0.10;;;;;;;;;;5052481;28;20009;-66
2021/12/26 10:16:51;;;;;;;0.57;0.15;;;;;;;;;;5052196;28;20021;-66
2021/12/26 10:19:17;;;;;;;0.20;0.10;;;;;;;;;;5052388;28;20021;-66
2021/12/26 10:21:44;;;;;;;0.28;0.17;;;;;;;;;;5052006;28;20041;-65
2021/12/26 10:24:23;;;;;;;0.52;0.20;;;;;;;;;;5045729;28;20044;-66
2021/12/26 10:27:09;;;;;;;0.30;0.20;;;;;;;;;;5032111;28;20091;-66
2021/12/26 10:29:38;;;;;;;1.17;0.40;;;;;;;;;;5032021;28;20029;-66
2021/12/26 10:32:03;;;;;;;0.17;0.05;;;;;;;;;;5032385;28;20017;-66
2021/12/26 10:34:49;;;;;;;0.38;0.10;;;;;;;;;;5032372;28;20025;-65
2021/12/26 10:37:28;;;;;;;0.22;0.20;;;;;;;;;;4971121;28;20039;-66
2021/12/26 10:39:55;;;;;;;0.88;0.20;;;;;;;;;;4974612;28;20031;-65
2021/12/26 10:42:25;;;;;;;0.40;0.10;;;;;;;;;;4975278;28;20031;-65
2021/12/26 10:44:54;;;;;;;0.20;0.20;;;;;;;;;;4974840;28;20022;-66
2021/12/26 10:47:21;;;;;;;0.85;0.52;;;;;;;;;;4983446;28;20425;-65
2021/12/26 10:49:50;;;;;;;1.13;0.10;;;;;;;;;;4994271;28;20094;-64
2021/12/26 10:52:17;;;;;;;0.20;0.13;;;;;;;;;;4994483;28;20019;-66
2021/12/26 10:54:44;;;;;;;0.70;0.13;;;;;;;;;;4994100;28;20030;-66
2021/12/26 10:57:10;;;;;;;0.90;0.20;;;;;;;;;;4977085;28;20029;-66
2021/12/26 10:59:36;;;;;;;0.35;0.13;;;;;;;;;;4974799;28;20027;-66
2021/12/26 11:02:01;;;;;;;0.40;0.10;;;;;;;;;;4974655;28;20034;-66
2021/12/26 11:04:27;;;;;;;0.17;0.10;;;;;;;;;;4974842;28;20118;-66
2021/12/26 11:07:10;;;;;;;0.20;0.10;;;;;;;;;;4974363;28;20035;-66
2021/12/26 11:09:36;;;;;;;0.88;0.10;;;;;;;;;;4974644;28;20029;-65
2021/12/26 11:12:08;;;;;;;0.43;0.05;;;;;;;;;;4974565;28;20102;-65
2021/12/26 11:14:53;;;;;;;0.73;0.45;;;;;;;;;;5010828;28;20037;-66
2021/12/26 11:17:49;;;;;;;0.30;0.13;;;;;;;;;;5035656;28;20448;-66
2021/12/26 11:20:18;;;;;;;0.10;0.00;;;;;;;;;;4974117;28;20034;-66
2021/12/26 11:22:44;;;;;;;0.35;0.05;;;;;;;;;;4974099;28;20192;-66
2021/12/26 11:25:09;;;;;;;0.88;0.10;;;;;;;;;;4988513;28;20113;-65
2021/12/26 11:27:34;;;;;;;0.20;0.10;;;;;;;;;;4993813;28;20052;-65
2021/12/26 11:29:59;;;;;;;0.10;0.10;;;;;;;;;;4993703;28;20488;-65
2021/12/26 11:32:26;;;;;;;0.90;0.30;;;;;;;;;;4993689;28;20022;-65
2021/12/26 11:34:52;;;;;;;0.20;0.10;;;;;;;;;;4993467;28;20050;-66
2021/12/26 11:37:17;;;;;;;0.20;0.10;;;;;;;;;;4993627;28;20151;-66
2021/12/26 11:39:43;;;;;;;0.50;0.10;;;;;;;;;;4993506;28;20026;-65
2021/12/26 11:42:11;;;;;;;0.20;0.00;;;;;;;;;;4993601;28;20571;-66
2021/12/26 11:44:54;;;;;;;0.47;0.10;;;;;;;;;;4993314;28;20062;-66
2021/12/26 11:47:21;;;;;;;0.10;0.00;;;;;;;;;;4984918;28;20030;-65
2021/12/26 11:50:05;;;;;;;0.88;0.17;;;;;;;;;;4972620;28;20031;-65
2021/12/26 11:52:31;;;;;;;;;;;;;;;;;;4974275;28;20465;-65
2021/12/26 11:54:56;;;;;;;0.00;0.00;;;;;;;;;;4973681;28;19906;-65
2021/12/26 11:57:21;;;;;;;0.10;0.00;;;;;;;;;;5022904;28;20251;-66
2021/12/26 12:00:05;;;;;;;0.10;0.00;;;;;;;;;;5034872;28;20459;-66
2021/12/26 12:02:39;;;;;;;2.03;0.20;;;;;;;;;;5035024;28;20255;-66
2021/12/26 12:05:12;;;;;;;0.52;0.43;;;;;;;;;;5034807;28;20377;-66
2021/12/26 12:07:56;;;;;;;0.65;0.10;;;;;;;;;;5034892;28;20420;-65
2021/12/26 12:10:33;;;;;;;0.28;0.13;;;;;;;;;;5034840;28;20044;-65
2021/12/26 12:12:58;;;;;;;0.43;0.28;;;;;;;;;;5034919;28;20022;-66
2021/12/26 12:15:42;;;;;;;0.20;0.10;;;;;;;;;;5034990;28;20031;-66
2021/12/26 12:18:09;;;;;;;0.38;0.10;;;;;;;;;;5033518;28;20047;-66
2021/12/26 12:20:34;;;;;;;0.30;0.10;;;;;;;;;;5034354;28;20038;-66
2021/12/26 12:23:08;;;;;;;0.15;0.08;;;;;;;;;;5034474;28;20028;-65
2021/12/26 12:25:34;;;;;;;0.20;0.20;;;;;;;;;;5034285;28;20030;-66
2021/12/26 12:28:16;;;;;;;0.20;0.10;;;;;;;;;;5034371;28;20100;-66
2021/12/26 12:30:43;;;;;;;0.22;0.20;;;;;;;;;;5034171;28;20045;-66
2021/12/26 12:33:11;;;;;;;0.45;0.05;;;;;;;;;;5034360;28;20029;-65
2021/12/26 12:35:48;;;;;;;0.10;0.03;;;;;;;;;;5034252;28;20523;-66
2021/12/26 12:38:32;;;;;;;0.65;0.08;;;;;;;;;;5034248;28;20022;-66
2021/12/26 12:40:58;;;;;;;0.43;0.20;;;;;;;;;;5034118;28;20021;-65
2021/12/26 12:43:25;;;;;;;0.25;0.10;;;;;;;;;;5034415;28;20113;-66
2021/12/26 12:45:55;;;;;;;0.82;0.15;;;;;;;;;;5033836;28;20020;-65
2021/12/26 12:48:20;;;;;;;0.08;0.05;;;;;;;;;;5050919;28;20024;-66
2021/12/26 12:50:45;;;;;;;0.52;0.20;;;;;;;;;;5053605;28;20017;-65
2021/12/26 12:53:30;;;;;;;0.93;0.13;;;;;;;;;;5053929;28;20013;-65
2021/12/26 12:55:55;;;;;;;0.35;0.25;;;;;;;;;;5053466;28;20262;-65
2021/12/26 12:58:21;;;;;;;1.10;0.20;;;;;;;;;;5049475;28;20032;-66
2021/12/26 13:00:47;;;;;;;0.20;0.10;;;;;;;;;;5032002;28;20250;-65
2021/12/26 13:03:14;;;;;;;1.65;0.13;;;;;;;;;;5032505;28;20503;-65
2021/12/26 13:05:39;;;;;;;0.40;0.05;;;;;;;;;;5033617;28;20068;-66
2021/12/26 13:08:05;;;;;;;0.43;0.37;;;;;;;;;;5033690;28;20025;-66
2021/12/26 13:10:31;;;;;;;0.60;0.10;;;;;;;;;;5033681;28;20053;-65
2021/12/26 13:13:06;;;;;;;0.82;0.10;;;;;;;;;;5033385;28;20037;-65
2021/12/26 13:15:32;;;;;;;0.32;0.08;;;;;;;;;;5033502;28;20460;-65
2021/12/26 13:17:58;;;;;;;0.30;0.10;;;;;;;;;;5033374;28;20034;-66
2021/12/26 13:20:26;;;;;;;0.73;0.45;;;;;;;;;;5033234;28;20044;-66
2021/12/26 13:22:53;;;;;;;0.10;0.00;;;;;;;;;;5033514;28;20061;-66
2021/12/26 13:25:49;;;;;;;0.88;0.20;;;;;;;;;;5033296;28;20021;-66
2021/12/26 13:28:14;;;;;;;0.20;0.00;;;;;;;;;;4972112;28;20393;-65
2021/12/26 13:30:42;;;;;;;0.10;0.10;;;;;;;;;;4971856;28;20262;-66
2021/12/26 13:33:17;;;;;;;0.52;0.10;;;;;;;;;;4972151;28;20030;-66
2021/12/26 13:35:42;;;;;;;0.77;0.10;;;;;;;;;;4971978;28;20058;-66
2021/12/26 13:38:08;;;;;;;1.10;0.10;;;;;;;;;;4972024;28;20031;-65
2021/12/26 13:40:37;;;;;;;0.10;0.10;;;;;;;;;;4971908;28;20031;-65
2021/12/26 13:43:02;;;;;;;0.22;0.10;;;;;;;;;;4971909;28;20053;-65
2021/12/26 13:45:29;;;;;;;0.47;0.20;;;;;;;;;;4971826;28;20481;-66
2021/12/26 13:47:54;;;;;;;0.08;0.08;;;;;;;;;;4984548;28;20109;-65
2021/12/26 13:50:19;;;;;;;0.35;0.05;;;;;;;;;;4991197;28;20105;-66
2021/12/26 13:52:44;;;;;;;0.27;0.10;;;;;;;;;;4990852;28;20085;-65
2021/12/26 13:55:09;;;;;;;1.60;0.20;;;;;;;;;;4991111;28;20263;-66
2021/12/26 13:57:35;;;;;;;1.23;0.10;;;;;;;;;;4991031;28;20109;-65
2021/12/26 14:00:02;;;;;;;0.75;0.20;;;;;;;;;;4990870;28;20624;-65
2021/12/26 14:02:32;;;;;;;1.35;0.10;;;;;;;;;;4991210;28;20469;-65
2021/12/26 14:04:58;;;;;;;0.10;0.10;;;;;;;;;;5021424;28;20603;-66
2021/12/26 14:07:28;;;;;;;0.70;0.10;;;;;;;;;;5052539;28;20028;-66
2021/12/26 14:09:55;;;;;;;1.33;0.20;;;;;;;;;;5052331;28;20020;-65
2021/12/26 14:12:34;;;;;;;0.15;0.10;;;;;;;;;;5052256;28;20028;-66
2021/12/26 14:15:24;;;;;;;0.08;0.03;;;;;;;;;;5052274;28;20028;-65
2021/12/26 14:17:54;;;;;;;0.75;0.17;;;;;;;;;;5052301;28;20013;-66
2021/12/26 14:20:19;;;;;;;0.20;0.10;;;;;;;;;;5052328;28;20086;-65
2021/12/26 14:22:44;;;;;;;0.30;0.10;;;;;;;;;;5052103;28;20016;-66
2021/12/26 14:25:10;;;;;;;0.30;0.10;;;;;;;;;;5037556;28;20092;-66
2021/12/26 14:27:35;;;;;;;0.20;0.10;;;;;;;;;;5032431;28;20249;-66
2021/12/26 14:30:00;;;;;;;0.40;0.20;;;;;;;;;;5032316;28;20022;-65
2021/12/26 14:32:26;;;;;;;0.43;0.10;;;;;;;;;;5031104;28;20273;-66
2021/12/26 14:34:51;;;;;;;0.15;0.10;;;;;;;;;;5032185;28;20016;-65
2021/12/26 14:37:20;;;;;;;0.52;0.20;;;;;;;;;;5032428;28;20056;-66
2021/12/26 14:39:45;;;;;;;0.38;0.10;;;;;;;;;;5031805;28;20076;-66
2021/12/26 14:42:15;;;;;;;0.30;0.00;;;;;;;;;;5032395;28;20025;-65
2021/12/26 14:44:51;;;;;;;0.20;0.20;;;;;;;;;;5032092;28;20048;-65
2021/12/26 14:47:16;;;;;;;0.28;0.10;;;;;;;;;;5040287;28;20068;-65